createdAt,value
2023-03-29T00:01:02.375Z,68.86
2023-03-29T00:03:30.935Z,68.87
2023-03-29T00:06:02.931Z,69.10
2023-03-29T00:08:31.646Z,68.90
2023-03-29T00:10:59.484Z,68.89
2023-03-29T00:13:27.290Z,69.10
2023-03-29T00:15:54.873Z,69.30
2023-03-29T00:18:22.370Z,69.50
2023-03-29T00:20:49.860Z,69.99
2023-03-29T00:23:18.380Z,70.00
2023-03-29T00:25:46.838Z,69.89
2023-03-29T00:28:14.952Z,69.92
2023-03-29T00:30:42.496Z,69.83
2023-03-29T00:33:11.576Z,69.77
2023-03-29T00:35:39.333Z,69.76
2023-03-29T00:38:07.985Z,69.69
2023-03-29T00:40:36.045Z,69.78
2023-03-29T00:43:04.845Z,69.86
2023-03-29T00:45:34.356Z,69.87
2023-03-29T00:48:02.902Z,69.92
2023-03-29T00:50:30.962Z,69.90
2023-03-29T00:52:58.947Z,69.86
2023-03-29T00:55:26.524Z,69.79
2023-03-29T00:57:55.787Z,69.56
2023-03-29T01:00:23.612Z,69.66
2023-03-29T01:02:54.255Z,70.17
2023-03-29T01:05:22.787Z,69.97
2023-03-29T01:07:53.847Z,69.88
2023-03-29T01:10:21.550Z,70.02
2023-03-29T01:12:49.122Z,70.09
2023-03-29T01:15:17.507Z,69.81
2023-03-29T01:17:50.375Z,70.06
2023-03-29T01:20:20.332Z,70.12
2023-03-29T01:22:47.817Z,70.07
2023-03-29T01:25:16.542Z,69.94
2023-03-29T01:27:44.069Z,69.83
2023-03-29T01:30:12.102Z,70.03
2023-03-29T01:32:39.657Z,69.81
2023-03-29T01:35:10.510Z,69.72
2023-03-29T01:37:38.051Z,69.80
2023-03-29T01:40:06.453Z,69.95
2023-03-29T01:42:34.196Z,69.98
2023-03-29T01:45:03.165Z,70.38
2023-03-29T01:47:31.220Z,70.70
2023-03-29T01:50:01.095Z,70.92
2023-03-29T01:52:29.040Z,71.00
2023-03-29T01:54:56.572Z,71.07
2023-03-29T01:57:25.571Z,70.99
2023-03-29T01:59:53.155Z,71.21
2023-03-29T02:02:20.777Z,71.20
2023-03-29T02:04:50.215Z,71.03
2023-03-29T02:07:17.915Z,71.23
2023-03-29T02:09:47.133Z,71.17
2023-03-29T02:12:15.324Z,70.87
2023-03-29T02:14:43.326Z,70.48
2023-03-29T02:17:10.800Z,70.64
2023-03-29T02:19:39.395Z,70.74
2023-03-29T02:22:07.043Z,70.86
2023-03-29T02:24:34.530Z,71.02
2023-03-29T02:27:02.414Z,71.28
2023-03-29T02:29:32.370Z,71.08
2023-03-29T02:32:00.260Z,71.06
2023-03-29T02:34:29.106Z,71.32
2023-03-29T02:36:56.770Z,71.68
2023-03-29T02:39:25.488Z,71.61
2023-03-29T02:41:53.258Z,71.74
2023-03-29T02:44:20.763Z,71.89
2023-03-29T02:46:49.016Z,72.06
2023-03-29T02:49:16.724Z,72.16
2023-03-29T02:51:44.367Z,72.23
2023-03-29T02:54:12.750Z,72.39
2023-03-29T02:56:41.698Z,72.21
2023-03-29T02:59:09.806Z,72.06
2023-03-29T03:01:37.381Z,72.22
2023-03-29T03:04:05.011Z,72.37
2023-03-29T03:06:33.724Z,72.43
2023-03-29T03:09:02.138Z,72.41
2023-03-29T03:11:29.819Z,72.59
2023-03-29T03:13:57.448Z,72.78
2023-03-29T03:16:25.426Z,72.76
2023-03-29T03:18:54.945Z,72.80
2023-03-29T03:21:22.580Z,72.75
2023-03-29T03:23:50.165Z,72.66
2023-03-29T03:26:18.323Z,72.45
2023-03-29T03:28:46.257Z,72.49
2023-03-29T03:31:14.085Z,72.59
2023-03-29T03:33:42.975Z,72.55
2023-03-29T03:36:11.283Z,72.42
2023-03-29T03:38:41.442Z,72.37
2023-03-29T03:41:09.522Z,72.37
2023-03-29T03:43:37.384Z,72.22
2023-03-29T03:46:05.770Z,72.26
2023-03-29T03:48:34.030Z,72.46
2023-03-29T03:51:01.968Z,72.52
2023-03-29T03:53:29.904Z,72.86
2023-03-29T03:55:58.977Z,72.63
2023-03-29T03:58:27.247Z,72.74
2023-03-29T04:00:55.119Z,73.18
2023-03-29T04:03:25.941Z,73.33
2023-03-29T04:05:53.637Z,73.23
2023-03-29T04:08:22.592Z,73.21
2023-03-29T04:10:50.728Z,73.36
2023-03-29T04:13:18.559Z,73.37
2023-03-29T04:15:55.017Z,73.27
2023-03-29T04:18:28.645Z,73.30
2023-03-29T04:20:59.163Z,73.37
2023-03-29T04:23:29.258Z,73.61
2023-03-29T04:25:57.431Z,73.62
2023-03-29T04:28:26.186Z,73.39
2023-03-29T04:30:55.558Z,73.21
2023-03-29T04:33:23.735Z,73.24
2023-03-29T04:35:59.334Z,73.17
2023-03-29T04:38:29.201Z,73.17
2023-03-29T04:40:57.251Z,73.81
2023-03-29T04:43:27.932Z,74.02
2023-03-29T04:46:16.134Z,74.29
2023-03-29T04:48:45.818Z,74.67
2023-03-29T04:51:14.513Z,74.87
2023-03-29T04:53:44.175Z,75.04
2023-03-29T04:56:11.851Z,75.04
2023-03-29T04:58:41.442Z,75.00
2023-03-29T05:01:13.612Z,74.73
2023-03-29T05:03:42.619Z,74.42
2023-03-29T05:06:10.535Z,74.34
2023-03-29T05:08:39.435Z,74.51
2023-03-29T05:11:07.121Z,74.39
2023-03-29T05:13:34.871Z,74.43
2023-03-29T05:16:02.789Z,74.55
2023-03-29T05:18:30.352Z,74.74
2023-03-29T05:20:58.051Z,74.80
2023-03-29T05:23:25.829Z,74.84
2023-03-29T05:25:53.693Z,74.68
2023-03-29T05:28:21.594Z,74.50
2023-03-29T05:30:49.507Z,74.51
2023-03-29T05:33:17.621Z,74.37
2023-03-29T05:35:45.439Z,74.10
2023-03-29T05:38:13.864Z,74.33
2023-03-29T05:40:44.486Z,74.26
2023-03-29T05:43:12.580Z,74.48
2023-03-29T05:45:40.300Z,75.41
2023-03-29T05:48:10.108Z,75.94
2023-03-29T05:50:39.607Z,75.27
2023-03-29T05:53:08.517Z,74.16
2023-03-29T05:55:36.337Z,73.88
2023-03-29T05:58:04.427Z,73.63
2023-03-29T06:00:34.545Z,73.70
2023-03-29T06:03:13.616Z,73.75
2023-03-29T06:05:49.132Z,74.12
2023-03-29T06:08:17.440Z,74.65
2023-03-29T06:10:45.738Z,74.85
2023-03-29T06:13:14.052Z,74.50
2023-03-29T06:15:41.785Z,76.28
2023-03-29T06:18:09.967Z,75.20
2023-03-29T06:20:38.334Z,75.04
2023-03-29T06:23:05.892Z,75.56
2023-03-29T06:25:35.324Z,76.14
2023-03-29T06:28:04.267Z,76.55
2023-03-29T06:30:32.182Z,76.79
2023-03-29T06:33:05.535Z,77.04
2023-03-29T06:35:38.506Z,77.04
2023-03-29T06:38:11.450Z,76.88
2023-03-29T06:40:40.659Z,76.99
2023-03-29T06:43:09.085Z,77.01
2023-03-29T06:45:36.768Z,77.01
2023-03-29T06:48:04.858Z,76.93
2023-03-29T06:50:32.932Z,76.80
2023-03-29T06:53:01.976Z,76.66
2023-03-29T06:55:30.338Z,76.38
2023-03-29T06:58:02.701Z,76.09
2023-03-29T07:00:31.015Z,75.89
2023-03-29T07:03:01.641Z,75.84
2023-03-29T07:05:30.537Z,75.49
2023-03-29T07:08:02.230Z,75.38
2023-03-29T07:10:33.004Z,75.29
2023-03-29T07:13:01.684Z,75.03
2023-03-29T07:15:29.956Z,75.14
2023-03-29T07:17:58.061Z,74.92
2023-03-29T07:20:27.281Z,74.32
2023-03-29T07:22:55.014Z,74.04
2023-03-29T07:25:24.731Z,73.52
2023-03-29T07:27:54.574Z,73.09
2023-03-29T07:30:23.030Z,72.91
2023-03-29T07:32:51.543Z,73.13
2023-03-29T07:35:19.800Z,72.88
2023-03-29T07:37:48.244Z,72.51
2023-03-29T07:40:26.031Z,72.73
2023-03-29T07:43:08.137Z,72.15
2023-03-29T07:45:37.654Z,72.24
2023-03-29T07:48:05.975Z,72.26
2023-03-29T07:50:34.565Z,72.16
2023-03-29T07:53:03.187Z,72.03
2023-03-29T07:55:31.516Z,71.52
2023-03-29T07:58:00.135Z,70.96
2023-03-29T08:00:29.222Z,70.77
2023-03-29T08:02:59.856Z,70.51
2023-03-29T08:05:40.632Z,70.87
2023-03-29T08:08:09.984Z,69.95
2023-03-29T08:10:39.060Z,69.57
2023-03-29T08:13:10.537Z,69.74
2023-03-29T08:15:39.561Z,69.55
2023-03-29T08:18:07.449Z,69.30
2023-03-29T08:20:35.387Z,68.97
2023-03-29T08:23:07.609Z,68.76
2023-03-29T08:25:37.069Z,69.14
2023-03-29T08:28:05.876Z,69.04
2023-03-29T08:30:50.285Z,68.08
2023-03-29T08:33:18.576Z,67.71
2023-03-29T08:35:47.145Z,66.57
2023-03-29T08:38:14.941Z,65.31
2023-03-29T08:40:42.656Z,64.81
2023-03-29T08:43:10.262Z,63.64
2023-03-29T08:45:38.105Z,63.39
2023-03-29T08:48:05.678Z,62.94
2023-03-29T08:50:33.357Z,62.13
2023-03-29T08:53:02.134Z,61.54
2023-03-29T08:55:33.393Z,60.27
2023-03-29T08:58:02.413Z,59.21
2023-03-29T09:00:30.572Z,59.12
2023-03-29T09:03:01.225Z,57.67
2023-03-29T09:05:28.895Z,57.27
2023-03-29T09:07:57.099Z,57.05
2023-03-29T09:10:28.941Z,54.90
2023-03-29T09:12:57.539Z,54.97
2023-03-29T09:15:25.945Z,53.73
2023-03-29T09:17:54.761Z,52.02
2023-03-29T09:20:23.772Z,49.64
2023-03-29T09:22:51.453Z,51.29
2023-03-29T09:25:24.236Z,50.11
2023-03-29T09:27:52.307Z,49.90
2023-03-29T09:30:27.586Z,49.24
2023-03-29T09:32:55.330Z,48.16
2023-03-29T09:35:24.160Z,48.84
2023-03-29T09:37:54.397Z,50.06
2023-03-29T09:40:22.830Z,51.16
2023-03-29T09:42:51.573Z,50.18
2023-03-29T09:45:20.383Z,49.93
2023-03-29T09:47:48.907Z,49.89
2023-03-29T09:50:29.679Z,50.48
2023-03-29T09:52:59.696Z,50.30
2023-03-29T09:55:31.016Z,51.16
2023-03-29T09:57:59.326Z,49.79
2023-03-29T10:00:28.236Z,49.09
2023-03-29T10:02:57.153Z,50.28
2023-03-29T10:05:25.211Z,50.80
2023-03-29T10:07:52.806Z,51.21
2023-03-29T10:10:20.541Z,51.55
2023-03-29T10:12:50.399Z,51.63
2023-03-29T10:15:29.089Z,50.64
2023-03-29T10:17:58.007Z,51.56
2023-03-29T10:20:26.722Z,51.51
2023-03-29T10:22:54.882Z,53.41
2023-03-29T10:25:31.453Z,53.46
2023-03-29T10:27:59.091Z,53.76
2023-03-29T10:30:27.226Z,55.13
2023-03-29T10:32:57.350Z,54.28
2023-03-29T10:35:25.136Z,54.54
2023-03-29T10:37:53.168Z,53.80
2023-03-29T10:40:22.224Z,53.78
2023-03-29T10:42:50.470Z,54.25
2023-03-29T10:45:18.041Z,53.84
2023-03-29T10:47:46.488Z,54.14
2023-03-29T10:50:15.149Z,52.99
2023-03-29T10:52:43.451Z,51.47
2023-03-29T10:55:11.124Z,49.61
2023-03-29T10:57:39.002Z,49.53
2023-03-29T11:00:07.066Z,50.23
2023-03-29T11:02:34.686Z,50.85
2023-03-29T11:05:03.152Z,50.10
2023-03-29T11:07:31.720Z,50.44
2023-03-29T11:09:59.410Z,51.21
2023-03-29T11:12:27.259Z,50.71
2023-03-29T11:14:54.869Z,47.57
2023-03-29T11:17:22.649Z,48.97
2023-03-29T11:19:50.353Z,48.70
2023-03-29T11:22:18.075Z,48.69
2023-03-29T11:24:47.153Z,49.63
2023-03-29T11:27:14.872Z,49.31
2023-03-29T11:29:50.090Z,49.81
2023-03-29T11:32:19.069Z,49.78
2023-03-29T11:34:49.339Z,49.06
2023-03-29T11:37:20.838Z,47.65
2023-03-29T11:39:49.421Z,48.47
2023-03-29T11:42:18.521Z,47.61
2023-03-29T11:44:54.796Z,48.56
2023-03-29T11:47:24.127Z,46.26
2023-03-29T11:49:54.692Z,46.92
2023-03-29T11:52:22.702Z,47.84
2023-03-29T11:54:52.727Z,49.00
2023-03-29T11:57:22.724Z,48.79
2023-03-29T11:59:52.220Z,48.28
2023-03-29T12:02:20.316Z,49.03
2023-03-29T12:04:49.707Z,48.90
2023-03-29T12:07:19.121Z,49.51
2023-03-29T12:09:48.198Z,49.58
2023-03-29T12:12:16.674Z,47.45
2023-03-29T12:14:44.925Z,46.42
2023-03-29T12:17:13.798Z,47.29
2023-03-29T12:19:43.933Z,48.14
2023-03-29T12:22:11.579Z,47.70
2023-03-29T12:24:41.722Z,47.26
2023-03-29T12:27:12.632Z,48.65
2023-03-29T12:29:40.941Z,47.78
2023-03-29T12:32:26.599Z,47.16
2023-03-29T12:35:00.646Z,46.49
2023-03-29T12:37:48.397Z,47.18
2023-03-29T12:40:17.901Z,47.33
2023-03-29T12:42:54.824Z,47.75
2023-03-29T12:45:25.806Z,47.08
2023-03-29T12:47:53.713Z,46.72
2023-03-29T12:50:21.529Z,47.30
2023-03-29T12:52:50.177Z,46.66
2023-03-29T12:55:18.990Z,46.81
2023-03-29T12:57:48.754Z,47.29
2023-03-29T13:00:21.062Z,46.50
2023-03-29T13:02:57.924Z,46.01
2023-03-29T13:05:25.577Z,46.32
2023-03-29T13:08:15.290Z,46.31
2023-03-29T13:10:43.158Z,46.57
2023-03-29T13:13:12.617Z,45.36
2023-03-29T13:15:42.761Z,45.02
2023-03-29T13:18:32.440Z,46.46
2023-03-29T13:21:38.882Z,47.07
2023-03-29T13:24:10.775Z,46.48
2023-03-29T13:26:48.032Z,47.87
2023-03-29T13:29:17.722Z,47.84
2023-03-29T13:31:51.823Z,48.09
2023-03-29T13:34:20.405Z,47.29
2023-03-29T13:36:49.000Z,47.44
2023-03-29T13:39:17.010Z,47.33
2023-03-29T13:41:54.321Z,47.71
2023-03-29T13:44:22.625Z,47.47
2023-03-29T13:46:53.073Z,46.75
2023-03-29T13:49:20.787Z,47.85
2023-03-29T13:51:48.509Z,48.72
2023-03-29T13:54:16.658Z,48.67
2023-03-29T13:56:44.380Z,48.62
2023-03-29T13:59:12.061Z,49.68
2023-03-29T14:01:40.892Z,48.71
2023-03-29T14:04:08.538Z,47.95
2023-03-29T14:06:36.900Z,48.39
2023-03-29T14:09:06.684Z,48.25
2023-03-29T14:11:34.622Z,49.33
2023-03-29T14:14:03.654Z,48.95
2023-03-29T14:16:31.755Z,48.59
2023-03-29T14:19:03.846Z,48.24
2023-03-29T14:21:34.370Z,48.79
2023-03-29T14:24:02.083Z,49.24
2023-03-29T14:26:31.808Z,48.42
2023-03-29T14:29:02.382Z,48.74
2023-03-29T14:31:32.744Z,48.38
2023-03-29T14:34:01.150Z,49.81
2023-03-29T14:36:29.015Z,49.39
2023-03-29T14:38:58.011Z,48.53
2023-03-29T14:41:25.573Z,49.23
2023-03-29T14:43:53.067Z,48.57
2023-03-29T14:46:20.600Z,49.41
2023-03-29T14:48:49.502Z,49.47
2023-03-29T14:51:17.750Z,49.01
2023-03-29T14:53:47.301Z,48.42
2023-03-29T14:56:16.179Z,48.80
2023-03-29T14:58:47.155Z,49.56
2023-03-29T15:01:14.888Z,49.82
2023-03-29T15:03:46.998Z,49.02
2023-03-29T15:06:15.210Z,49.35
2023-03-29T15:08:51.079Z,49.59
2023-03-29T15:11:30.839Z,48.94
2023-03-29T15:14:01.456Z,49.62
2023-03-29T15:16:30.588Z,50.12
2023-03-29T15:19:00.849Z,50.36
2023-03-29T15:21:32.739Z,50.40
2023-03-29T15:24:00.589Z,50.31
2023-03-29T15:26:30.400Z,49.54
2023-03-29T15:29:00.575Z,50.09
2023-03-29T15:31:29.610Z,50.66
2023-03-29T15:33:57.592Z,50.67
2023-03-29T15:36:26.727Z,50.44
2023-03-29T15:38:55.046Z,50.56
2023-03-29T15:41:23.028Z,50.80
2023-03-29T15:43:51.127Z,50.71
2023-03-29T15:46:18.901Z,50.67
2023-03-29T15:48:47.038Z,50.62
2023-03-29T15:51:15.616Z,50.75
2023-03-29T15:53:44.475Z,51.19
2023-03-29T15:56:14.410Z,51.39
2023-03-29T15:58:44.009Z,50.80
2023-03-29T16:01:13.379Z,51.87
2023-03-29T16:03:41.802Z,52.68
2023-03-29T16:06:12.906Z,50.94
2023-03-29T16:08:42.929Z,51.08
2023-03-29T16:11:11.809Z,50.78
2023-03-29T16:13:42.127Z,50.84
2023-03-29T16:16:11.198Z,50.56
2023-03-29T16:18:39.773Z,50.78
2023-03-29T16:21:08.401Z,51.13
2023-03-29T16:23:37.165Z,50.96
2023-03-29T16:26:05.404Z,51.06
2023-03-29T16:28:34.032Z,50.24
2023-03-29T16:31:04.197Z,50.85
2023-03-29T16:33:32.428Z,51.37
2023-03-29T16:36:01.273Z,51.55
2023-03-29T16:38:29.537Z,51.46
2023-03-29T16:40:59.615Z,51.21
2023-03-29T16:43:27.805Z,51.77
2023-03-29T16:45:55.701Z,51.96
2023-03-29T16:48:23.900Z,51.67
2023-03-29T16:50:52.247Z,51.94
2023-03-29T16:53:25.370Z,52.23
2023-03-29T16:55:55.065Z,52.07
2023-03-29T16:58:23.895Z,51.77
2023-03-29T17:00:55.795Z,51.27
2023-03-29T17:03:23.647Z,51.11
2023-03-29T17:05:51.989Z,51.71
2023-03-29T17:08:20.790Z,52.30
2023-03-29T17:10:50.121Z,52.94
2023-03-29T17:13:17.841Z,53.44
2023-03-29T17:15:46.595Z,53.50
2023-03-29T17:18:15.769Z,53.28
2023-03-29T17:20:44.196Z,53.02
2023-03-29T17:23:12.393Z,53.77
2023-03-29T17:25:43.379Z,54.07
2023-03-29T17:28:12.826Z,54.38
2023-03-29T17:30:42.381Z,54.65
2023-03-29T17:33:12.750Z,54.72
2023-03-29T17:35:40.950Z,55.06
2023-03-29T17:38:10.631Z,55.65
2023-03-29T17:40:39.415Z,56.01
2023-03-29T17:43:07.240Z,56.25
2023-03-29T17:45:35.608Z,56.63
2023-03-29T17:48:06.172Z,56.56
2023-03-29T17:50:38.628Z,56.61
2023-03-29T17:53:19.521Z,56.85
2023-03-29T17:55:50.079Z,57.10
2023-03-29T17:58:18.682Z,57.55
2023-03-29T18:00:46.668Z,57.64
2023-03-29T18:03:15.260Z,58.64
2023-03-29T18:05:43.329Z,59.43
2023-03-29T18:08:13.500Z,60.02
2023-03-29T18:10:41.884Z,60.28
2023-03-29T18:13:14.715Z,60.62
2023-03-29T18:15:45.154Z,60.81
2023-03-29T18:18:16.107Z,60.55
2023-03-29T18:20:44.699Z,60.66
2023-03-29T18:23:13.383Z,61.12
2023-03-29T18:25:42.025Z,61.89
2023-03-29T18:28:09.917Z,61.62
2023-03-29T18:30:38.109Z,61.19
2023-03-29T18:33:06.209Z,61.19
2023-03-29T18:35:34.797Z,60.90
2023-03-29T18:38:03.523Z,60.87
2023-03-29T18:40:32.163Z,61.78
2023-03-29T18:43:00.608Z,61.88
2023-03-29T18:45:28.682Z,62.80
2023-03-29T18:47:56.595Z,64.14
2023-03-29T18:50:27.197Z,65.31
2023-03-29T18:52:55.082Z,65.49
2023-03-29T18:55:22.862Z,65.56
2023-03-29T18:57:52.929Z,65.52
2023-03-29T19:00:20.544Z,65.22
2023-03-29T19:02:48.413Z,65.20
2023-03-29T19:05:16.668Z,65.51
2023-03-29T19:07:44.354Z,65.71
2023-03-29T19:10:12.606Z,65.78
2023-03-29T19:12:41.407Z,65.66
2023-03-29T19:15:09.161Z,65.59
2023-03-29T19:17:37.079Z,65.60
2023-03-29T19:20:11.644Z,65.79
2023-03-29T19:22:39.202Z,65.89
2023-03-29T19:25:06.865Z,66.14
2023-03-29T19:27:34.645Z,66.32
2023-03-29T19:30:02.367Z,67.60
2023-03-29T19:32:33.678Z,67.83
2023-03-29T19:35:02.094Z,67.96
2023-03-29T19:37:29.620Z,67.83
2023-03-29T19:39:57.228Z,68.03
2023-03-29T19:42:24.991Z,68.58
2023-03-29T19:44:52.552Z,68.22
2023-03-29T19:47:20.330Z,67.69
2023-03-29T19:49:52.149Z,67.60
2023-03-29T19:52:20.417Z,67.64
2023-03-29T19:54:48.354Z,67.83
2023-03-29T19:57:16.557Z,68.01
2023-03-29T19:59:47.349Z,68.10
2023-03-29T20:02:17.208Z,68.13
2023-03-29T20:04:47.088Z,67.89
2023-03-29T20:07:17.160Z,67.77
2023-03-29T20:09:45.406Z,67.76
2023-03-29T20:12:14.456Z,67.59
2023-03-29T20:14:46.519Z,67.55
2023-03-29T20:17:14.200Z,67.62
2023-03-29T20:19:44.229Z,67.81
2023-03-29T20:22:11.804Z,68.10
2023-03-29T20:24:39.672Z,68.43
2023-03-29T20:27:07.335Z,68.67
2023-03-29T20:29:35.565Z,68.84
2023-03-29T20:32:03.174Z,68.98
2023-03-29T20:34:31.248Z,69.30
2023-03-29T20:37:01.251Z,69.78
2023-03-29T20:39:29.675Z,69.86
2023-03-29T20:41:57.199Z,69.98
2023-03-29T20:44:26.399Z,70.08
2023-03-29T20:47:04.301Z,70.42
2023-03-29T20:49:37.592Z,70.31
2023-03-29T20:52:08.345Z,70.23
2023-03-29T20:54:37.106Z,70.22
2023-03-29T20:57:04.819Z,70.05
2023-03-29T20:59:34.968Z,70.12
2023-03-29T21:02:02.603Z,70.58
2023-03-29T21:04:30.780Z,70.83
2023-03-29T21:07:01.665Z,71.09
2023-03-29T21:09:31.202Z,71.26
2023-03-29T21:12:01.064Z,71.18
2023-03-29T21:14:30.360Z,70.71
2023-03-29T21:16:58.139Z,70.66
2023-03-29T21:19:25.723Z,70.78
2023-03-29T21:21:54.981Z,70.76
2023-03-29T21:24:22.576Z,70.48
2023-03-29T21:26:51.447Z,70.19
2023-03-29T21:29:19.096Z,70.03
2023-03-29T21:31:46.708Z,69.86
2023-03-29T21:34:15.276Z,70.08
2023-03-29T21:36:42.978Z,70.24
2023-03-29T21:39:10.542Z,70.33
2023-03-29T21:41:38.071Z,70.48
2023-03-29T21:44:05.695Z,70.66
2023-03-29T21:46:33.570Z,70.77
2023-03-29T21:49:01.189Z,71.00
2023-03-29T21:51:28.816Z,71.03
2023-03-29T21:53:56.414Z,71.50
2023-03-29T21:56:24.123Z,71.42
2023-03-29T21:58:51.734Z,71.30
2023-03-29T22:01:19.282Z,71.28
2023-03-29T22:03:47.780Z,71.53
2023-03-29T22:06:15.350Z,71.56
2023-03-29T22:08:43.001Z,71.69
2023-03-29T22:11:11.073Z,71.97
2023-03-29T22:13:39.021Z,72.00
2023-03-29T22:16:09.044Z,72.11
2023-03-29T22:18:43.146Z,72.20
2023-03-29T22:21:11.137Z,72.26
2023-03-29T22:23:38.702Z,72.75
2023-03-29T22:26:07.017Z,72.46
2023-03-29T22:28:35.388Z,72.50
2023-03-29T22:31:03.141Z,72.42
2023-03-29T22:33:31.030Z,72.26
2023-03-29T22:35:58.695Z,72.42
2023-03-29T22:38:26.355Z,72.36
2023-03-29T22:40:53.900Z,72.51
2023-03-29T22:43:21.605Z,72.27
2023-03-29T22:45:49.171Z,72.09
2023-03-29T22:48:17.213Z,72.17
2023-03-29T22:50:44.721Z,72.16
2023-03-29T22:53:12.330Z,72.57
2023-03-29T22:55:39.960Z,72.68
2023-03-29T22:58:07.494Z,73.06
2023-03-29T23:00:34.974Z,73.09
2023-03-29T23:03:03.009Z,73.25
2023-03-29T23:05:30.992Z,73.62
2023-03-29T23:07:58.496Z,73.79
2023-03-29T23:10:30.596Z,74.20
2023-03-29T23:13:10.949Z,74.72
2023-03-29T23:15:38.555Z,74.93
2023-03-29T23:18:06.250Z,74.96
2023-03-29T23:20:33.812Z,74.83
2023-03-29T23:23:01.453Z,74.96
2023-03-29T23:25:30.065Z,75.05
2023-03-29T23:27:57.549Z,74.78
2023-03-29T23:30:25.284Z,75.01
2023-03-29T23:32:53.513Z,74.41
2023-03-29T23:35:22.801Z,73.74
2023-03-29T23:37:51.321Z,72.95
2023-03-29T23:40:18.936Z,72.38
2023-03-29T23:42:48.448Z,71.78
2023-03-29T23:45:16.091Z,70.81
2023-03-29T23:47:44.153Z,70.58
2023-03-29T23:50:13.306Z,70.85
2023-03-29T23:52:41.155Z,70.98
2023-03-29T23:55:08.761Z,70.58
2023-03-29T23:57:37.199Z,70.81
